sensor_id;sensor_type;location;lat;lon;timestamp;temperature;humidity
4050;DHT22;2039;50.894;6.888;2023-02-15T00:01:30;3.30;99.90
4050;DHT22;2039;50.894;6.888;2023-02-15T00:03:56;3.30;99.90
4050;DHT22;2039;50.894;6.888;2023-02-15T00:06:22;3.30;99.90
4050;DHT22;2039;50.894;6.888;2023-02-15T00:08:48;3.30;99.90
4050;DHT22;2039;50.894;6.888;2023-02-15T00:11:15;3.30;99.90
4050;DHT22;2039;50.894;6.888;2023-02-15T00:13:42;3.30;99.90
4050;DHT22;2039;50.894;6.888;2023-02-15T00:16:12;3.30;99.90
4050;DHT22;2039;50.894;6.888;2023-02-15T00:18:44;3.30;99.90
4050;DHT22;2039;50.894;6.888;2023-02-15T00:21:13;3.20;99.90
4050;DHT22;2039;50.894;6.888;2023-02-15T00:23:39;3.20;99.90
4050;DHT22;2039;50.894;6.888;2023-02-15T00:26:09;3.10;99.90
4050;DHT22;2039;50.894;6.888;2023-02-15T00:28:36;3.10;99.90
4050;DHT22;2039;50.894;6.888;2023-02-15T00:31:06;3.00;99.90
4050;DHT22;2039;50.894;6.888;2023-02-15T00:33:33;3.00;99.90
4050;DHT22;2039;50.894;6.888;2023-02-15T00:36:00;3.00;99.90
4050;DHT22;2039;50.894;6.888;2023-02-15T00:38:27;3.00;99.90
4050;DHT22;2039;50.894;6.888;2023-02-15T00:40:54;3.00;99.90
4050;DHT22;2039;50.894;6.888;2023-02-15T00:43:23;3.00;99.90
4050;DHT22;2039;50.894;6.888;2023-02-15T00:45:49;3.00;99.90
4050;DHT22;2039;50.894;6.888;2023-02-15T00:48:14;3.00;99.90
4050;DHT22;2039;50.894;6.888;2023-02-15T00:50:40;3.00;99.90
4050;DHT22;2039;50.894;6.888;2023-02-15T00:53:06;2.90;99.90
4050;DHT22;2039;50.894;6.888;2023-02-15T00:55:32;2.90;99.90
4050;DHT22;2039;50.894;6.888;2023-02-15T00:57:58;2.90;99.90
4050;DHT22;2039;50.894;6.888;2023-02-15T01:00:24;3.00;99.90
4050;DHT22;2039;50.894;6.888;2023-02-15T01:02:50;2.90;99.90
4050;DHT22;2039;50.894;6.888;2023-02-15T01:05:15;2.90;99.90
4050;DHT22;2039;50.894;6.888;2023-02-15T01:07:41;2.80;99.90
4050;DHT22;2039;50.894;6.888;2023-02-15T01:10:07;2.80;99.90
4050;DHT22;2039;50.894;6.888;2023-02-15T01:12:34;2.70;99.90
4050;DHT22;2039;50.894;6.888;2023-02-15T01:14:59;2.70;99.90
4050;DHT22;2039;50.894;6.888;2023-02-15T01:17:25;2.60;99.90
4050;DHT22;2039;50.894;6.888;2023-02-15T01:19:51;2.60;99.90
4050;DHT22;2039;50.894;6.888;2023-02-15T01:22:18;2.70;99.90
4050;DHT22;2039;50.894;6.888;2023-02-15T01:24:44;2.60;99.90
4050;DHT22;2039;50.894;6.888;2023-02-15T01:27:12;2.70;99.90
4050;DHT22;2039;50.894;6.888;2023-02-15T01:29:38;2.70;99.90
4050;DHT22;2039;50.894;6.888;2023-02-15T01:32:04;2.60;99.90
4050;DHT22;2039;50.894;6.888;2023-02-15T01:34:30;2.60;99.90
4050;DHT22;2039;50.894;6.888;2023-02-15T01:36:56;2.60;99.90
4050;DHT22;2039;50.894;6.888;2023-02-15T01:39:21;2.60;99.90
4050;DHT22;2039;50.894;6.888;2023-02-15T01:41:47;2.60;99.90
4050;DHT22;2039;50.894;6.888;2023-02-15T01:47:14;2.60;99.90
4050;DHT22;2039;50.894;6.888;2023-02-15T01:49:42;2.60;99.90
4050;DHT22;2039;50.894;6.888;2023-02-15T01:52:10;2.60;99.90
4050;DHT22;2039;50.894;6.888;2023-02-15T01:54:39;2.60;99.90
4050;DHT22;2039;50.894;6.888;2023-02-15T01:57:10;2.60;99.90
4050;DHT22;2039;50.894;6.888;2023-02-15T01:59:38;2.60;99.90
4050;DHT22;2039;50.894;6.888;2023-02-15T02:02:07;2.60;99.90
4050;DHT22;2039;50.894;6.888;2023-02-15T02:04:45;2.60;99.90
4050;DHT22;2039;50.894;6.888;2023-02-15T02:07:15;2.60;99.90
4050;DHT22;2039;50.894;6.888;2023-02-15T02:09:41;2.60;99.90
4050;DHT22;2039;50.894;6.888;2023-02-15T02:12:08;2.50;99.90
4050;DHT22;2039;50.894;6.888;2023-02-15T02:14:35;2.60;99.90
4050;DHT22;2039;50.894;6.888;2023-02-15T02:25:18;2.40;99.90
4050;DHT22;2039;50.894;6.888;2023-02-15T02:33:52;2.40;99.90
4050;DHT22;2039;50.894;6.888;2023-02-15T02:41:52;2.30;99.90
4050;DHT22;2039;50.894;6.888;2023-02-15T02:44:44;2.30;99.90
4050;DHT22;2039;50.894;6.888;2023-02-15T02:47:46;2.30;99.90
4050;DHT22;2039;50.894;6.888;2023-02-15T02:50:10;2.30;99.90
4050;DHT22;2039;50.894;6.888;2023-02-15T02:52:49;2.30;99.90
4050;DHT22;2039;50.894;6.888;2023-02-15T02:55:31;2.30;99.90
4050;DHT22;2039;50.894;6.888;2023-02-15T02:58:04;2.30;99.90
4050;DHT22;2039;50.894;6.888;2023-02-15T03:00:46;2.30;99.90
4050;DHT22;2039;50.894;6.888;2023-02-15T03:05:51;2.20;99.90
4050;DHT22;2039;50.894;6.888;2023-02-15T03:08:19;2.20;99.90
4050;DHT22;2039;50.894;6.888;2023-02-15T03:10:49;2.10;99.90
4050;DHT22;2039;50.894;6.888;2023-02-15T03:13:17;2.20;99.90
4050;DHT22;2039;50.894;6.888;2023-02-15T03:15:44;2.20;99.90
4050;DHT22;2039;50.894;6.888;2023-02-15T03:18:35;2.10;99.90
4050;DHT22;2039;50.894;6.888;2023-02-15T03:21:03;2.10;99.90
4050;DHT22;2039;50.894;6.888;2023-02-15T03:23:30;2.10;99.90
4050;DHT22;2039;50.894;6.888;2023-02-15T03:26:01;2.10;99.90
4050;DHT22;2039;50.894;6.888;2023-02-15T03:28:47;2.10;99.90
4050;DHT22;2039;50.894;6.888;2023-02-15T03:31:15;2.10;99.90
4050;DHT22;2039;50.894;6.888;2023-02-15T03:33:53;2.00;99.90
4050;DHT22;2039;50.894;6.888;2023-02-15T03:36:24;2.00;99.90
4050;DHT22;2039;50.894;6.888;2023-02-15T03:41:48;2.00;99.90
4050;DHT22;2039;50.894;6.888;2023-02-15T03:44:30;2.00;99.90
4050;DHT22;2039;50.894;6.888;2023-02-15T03:47:09;1.90;99.90
4050;DHT22;2039;50.894;6.888;2023-02-15T03:49:50;1.90;99.90
4050;DHT22;2039;50.894;6.888;2023-02-15T03:52:18;1.90;99.90
4050;DHT22;2039;50.894;6.888;2023-02-15T03:54:45;1.90;99.90
4050;DHT22;2039;50.894;6.888;2023-02-15T03:57:21;1.90;99.90
4050;DHT22;2039;50.894;6.888;2023-02-15T04:00:18;2.00;99.90
4050;DHT22;2039;50.894;6.888;2023-02-15T04:03:19;2.00;99.90
4050;DHT22;2039;50.894;6.888;2023-02-15T04:05:47;1.90;99.90
4050;DHT22;2039;50.894;6.888;2023-02-15T04:08:13;1.90;99.90
4050;DHT22;2039;50.894;6.888;2023-02-15T04:10:39;1.90;99.90
4050;DHT22;2039;50.894;6.888;2023-02-15T04:13:30;1.90;99.90
4050;DHT22;2039;50.894;6.888;2023-02-15T04:15:56;1.90;99.90
4050;DHT22;2039;50.894;6.888;2023-02-15T04:18:35;1.90;99.90
4050;DHT22;2039;50.894;6.888;2023-02-15T04:21:22;1.90;99.90
4050;DHT22;2039;50.894;6.888;2023-02-15T04:24:07;1.90;99.90
4050;DHT22;2039;50.894;6.888;2023-02-15T04:26:52;1.90;99.90
4050;DHT22;2039;50.894;6.888;2023-02-15T04:29:24;1.90;99.90
4050;DHT22;2039;50.894;6.888;2023-02-15T04:31:52;1.90;99.90
4050;DHT22;2039;50.894;6.888;2023-02-15T04:34:18;1.90;99.90
4050;DHT22;2039;50.894;6.888;2023-02-15T04:36:43;1.90;99.90
4050;DHT22;2039;50.894;6.888;2023-02-15T04:39:11;1.80;99.90
4050;DHT22;2039;50.894;6.888;2023-02-15T04:41:37;1.80;99.90
4050;DHT22;2039;50.894;6.888;2023-02-15T04:44:03;1.80;99.90
4050;DHT22;2039;50.894;6.888;2023-02-15T04:46:29;1.80;99.90
4050;DHT22;2039;50.894;6.888;2023-02-15T04:48:55;1.80;99.90
4050;DHT22;2039;50.894;6.888;2023-02-15T04:51:21;1.80;99.90
4050;DHT22;2039;50.894;6.888;2023-02-15T04:53:47;1.90;99.90
4050;DHT22;2039;50.894;6.888;2023-02-15T04:56:13;1.90;99.90
4050;DHT22;2039;50.894;6.888;2023-02-15T04:58:41;1.90;99.90
4050;DHT22;2039;50.894;6.888;2023-02-15T05:01:09;1.80;99.90
4050;DHT22;2039;50.894;6.888;2023-02-15T05:03:35;1.80;99.90
4050;DHT22;2039;50.894;6.888;2023-02-15T05:06:02;1.90;99.90
4050;DHT22;2039;50.894;6.888;2023-02-15T05:08:28;1.90;99.90
4050;DHT22;2039;50.894;6.888;2023-02-15T05:10:57;1.90;99.90
4050;DHT22;2039;50.894;6.888;2023-02-15T05:13:23;1.80;99.90
4050;DHT22;2039;50.894;6.888;2023-02-15T05:15:49;1.80;99.90
4050;DHT22;2039;50.894;6.888;2023-02-15T05:18:16;1.80;99.90
4050;DHT22;2039;50.894;6.888;2023-02-15T05:20:43;1.80;99.90
4050;DHT22;2039;50.894;6.888;2023-02-15T05:23:12;1.70;99.90
4050;DHT22;2039;50.894;6.888;2023-02-15T05:25:38;1.80;99.90
4050;DHT22;2039;50.894;6.888;2023-02-15T05:28:24;1.70;99.90
4050;DHT22;2039;50.894;6.888;2023-02-15T05:33:28;1.70;99.90
4050;DHT22;2039;50.894;6.888;2023-02-15T05:35:54;1.70;99.90
4050;DHT22;2039;50.894;6.888;2023-02-15T05:38:20;1.70;99.90
4050;DHT22;2039;50.894;6.888;2023-02-15T05:40:45;1.70;99.90
4050;DHT22;2039;50.894;6.888;2023-02-15T05:43:11;1.70;99.90
4050;DHT22;2039;50.894;6.888;2023-02-15T05:45:37;1.70;99.90
4050;DHT22;2039;50.894;6.888;2023-02-15T05:48:02;1.70;99.90
4050;DHT22;2039;50.894;6.888;2023-02-15T05:50:28;1.60;99.90
4050;DHT22;2039;50.894;6.888;2023-02-15T05:52:54;1.60;99.90
4050;DHT22;2039;50.894;6.888;2023-02-15T05:55:19;1.60;99.90
4050;DHT22;2039;50.894;6.888;2023-02-15T05:57:45;1.60;99.90
4050;DHT22;2039;50.894;6.888;2023-02-15T06:00:13;1.60;99.90
4050;DHT22;2039;50.894;6.888;2023-02-15T06:02:42;1.60;99.90
4050;DHT22;2039;50.894;6.888;2023-02-15T06:05:08;1.60;99.90
4050;DHT22;2039;50.894;6.888;2023-02-15T06:07:34;1.60;99.90
4050;DHT22;2039;50.894;6.888;2023-02-15T06:10:05;1.50;99.90
4050;DHT22;2039;50.894;6.888;2023-02-15T06:12:31;1.60;99.90
4050;DHT22;2039;50.894;6.888;2023-02-15T06:14:57;1.50;99.90
4050;DHT22;2039;50.894;6.888;2023-02-15T06:17:22;1.50;99.90
4050;DHT22;2039;50.894;6.888;2023-02-15T06:19:48;1.50;99.90
4050;DHT22;2039;50.894;6.888;2023-02-15T06:22:17;1.50;99.90
4050;DHT22;2039;50.894;6.888;2023-02-15T06:24:43;1.50;99.90
4050;DHT22;2039;50.894;6.888;2023-02-15T06:27:10;1.50;99.90
4050;DHT22;2039;50.894;6.888;2023-02-15T06:29:36;1.50;99.90
4050;DHT22;2039;50.894;6.888;2023-02-15T06:32:01;1.50;99.90
4050;DHT22;2039;50.894;6.888;2023-02-15T06:34:27;1.50;99.90
4050;DHT22;2039;50.894;6.888;2023-02-15T06:36:53;1.50;99.90
4050;DHT22;2039;50.894;6.888;2023-02-15T06:39:18;1.50;99.90
4050;DHT22;2039;50.894;6.888;2023-02-15T06:41:44;1.50;99.90
4050;DHT22;2039;50.894;6.888;2023-02-15T06:44:10;1.40;99.90
4050;DHT22;2039;50.894;6.888;2023-02-15T06:46:35;1.40;99.90
4050;DHT22;2039;50.894;6.888;2023-02-15T06:49:01;1.40;99.90
4050;DHT22;2039;50.894;6.888;2023-02-15T06:51:27;1.40;99.90
4050;DHT22;2039;50.894;6.888;2023-02-15T06:53:52;1.50;99.90
4050;DHT22;2039;50.894;6.888;2023-02-15T06:56:18;1.40;99.90
4050;DHT22;2039;50.894;6.888;2023-02-15T06:58:43;1.50;99.90
4050;DHT22;2039;50.894;6.888;2023-02-15T07:01:11;1.50;99.90
4050;DHT22;2039;50.894;6.888;2023-02-15T07:03:40;1.50;99.90
4050;DHT22;2039;50.894;6.888;2023-02-15T07:06:06;1.50;99.90
4050;DHT22;2039;50.894;6.888;2023-02-15T07:08:34;1.50;99.90
4050;DHT22;2039;50.894;6.888;2023-02-15T07:11:00;1.50;99.90
4050;DHT22;2039;50.894;6.888;2023-02-15T07:14:04;1.50;99.90
4050;DHT22;2039;50.894;6.888;2023-02-15T07:16:30;1.50;99.90
4050;DHT22;2039;50.894;6.888;2023-02-15T07:18:55;1.50;99.90
4050;DHT22;2039;50.894;6.888;2023-02-15T07:21:21;1.50;99.90
4050;DHT22;2039;50.894;6.888;2023-02-15T07:23:47;1.50;99.90
4050;DHT22;2039;50.894;6.888;2023-02-15T07:26:13;1.50;99.90
4050;DHT22;2039;50.894;6.888;2023-02-15T07:28:38;1.50;99.90
4050;DHT22;2039;50.894;6.888;2023-02-15T07:31:04;1.50;99.90
4050;DHT22;2039;50.894;6.888;2023-02-15T07:33:31;1.60;99.90
4050;DHT22;2039;50.894;6.888;2023-02-15T07:36:00;1.60;99.90
4050;DHT22;2039;50.894;6.888;2023-02-15T07:38:34;1.60;99.90
4050;DHT22;2039;50.894;6.888;2023-02-15T07:41:06;1.60;99.90
4050;DHT22;2039;50.894;6.888;2023-02-15T07:43:37;1.70;99.90
4050;DHT22;2039;50.894;6.888;2023-02-15T07:46:14;1.70;99.90
4050;DHT22;2039;50.894;6.888;2023-02-15T07:48:41;1.70;99.90
4050;DHT22;2039;50.894;6.888;2023-02-15T07:51:08;1.70;99.90
4050;DHT22;2039;50.894;6.888;2023-02-15T07:53:35;1.70;99.90
4050;DHT22;2039;50.894;6.888;2023-02-15T07:56:03;1.80;99.90
4050;DHT22;2039;50.894;6.888;2023-02-15T07:58:29;1.90;99.90
4050;DHT22;2039;50.894;6.888;2023-02-15T08:01:14;1.90;99.90
4050;DHT22;2039;50.894;6.888;2023-02-15T08:03:40;1.90;99.90
4050;DHT22;2039;50.894;6.888;2023-02-15T08:06:06;1.90;99.90
4050;DHT22;2039;50.894;6.888;2023-02-15T08:08:34;1.90;99.90
4050;DHT22;2039;50.894;6.888;2023-02-15T08:14:02;2.00;99.90
4050;DHT22;2039;50.894;6.888;2023-02-15T08:16:46;2.00;99.90
4050;DHT22;2039;50.894;6.888;2023-02-15T08:19:26;2.10;99.90
4050;DHT22;2039;50.894;6.888;2023-02-15T08:21:55;2.10;99.90
4050;DHT22;2039;50.894;6.888;2023-02-15T08:24:27;2.20;99.90
4050;DHT22;2039;50.894;6.888;2023-02-15T08:26:53;2.20;99.90
4050;DHT22;2039;50.894;6.888;2023-02-15T08:29:21;2.30;99.90
4050;DHT22;2039;50.894;6.888;2023-02-15T08:31:49;2.30;99.90
4050;DHT22;2039;50.894;6.888;2023-02-15T08:34:17;2.40;99.90
4050;DHT22;2039;50.894;6.888;2023-02-15T08:36:43;2.40;99.90
4050;DHT22;2039;50.894;6.888;2023-02-15T08:39:10;2.50;99.90
4050;DHT22;2039;50.894;6.888;2023-02-15T08:41:37;2.50;99.90
4050;DHT22;2039;50.894;6.888;2023-02-15T08:44:06;2.60;99.90
4050;DHT22;2039;50.894;6.888;2023-02-15T08:46:34;2.60;99.90
4050;DHT22;2039;50.894;6.888;2023-02-15T08:49:01;2.70;99.90
4050;DHT22;2039;50.894;6.888;2023-02-15T08:51:34;2.70;99.90
4050;DHT22;2039;50.894;6.888;2023-02-15T08:54:08;2.80;99.90
4050;DHT22;2039;50.894;6.888;2023-02-15T08:56:36;2.80;99.90
4050;DHT22;2039;50.894;6.888;2023-02-15T08:59:06;2.90;99.90
4050;DHT22;2039;50.894;6.888;2023-02-15T09:01:34;2.90;99.90
4050;DHT22;2039;50.894;6.888;2023-02-15T09:04:02;3.00;99.90
4050;DHT22;2039;50.894;6.888;2023-02-15T09:06:29;3.00;99.90
4050;DHT22;2039;50.894;6.888;2023-02-15T09:08:58;3.10;99.90
4050;DHT22;2039;50.894;6.888;2023-02-15T09:11:28;3.20;99.90
4050;DHT22;2039;50.894;6.888;2023-02-15T09:13:57;3.30;99.90
4050;DHT22;2039;50.894;6.888;2023-02-15T09:16:24;3.30;99.90
4050;DHT22;2039;50.894;6.888;2023-02-15T09:18:51;3.40;99.90
4050;DHT22;2039;50.894;6.888;2023-02-15T09:21:19;3.50;99.90
4050;DHT22;2039;50.894;6.888;2023-02-15T09:23:47;3.50;99.90
4050;DHT22;2039;50.894;6.888;2023-02-15T09:26:18;3.60;99.90
4050;DHT22;2039;50.894;6.888;2023-02-15T09:28:45;3.70;99.90
4050;DHT22;2039;50.894;6.888;2023-02-15T09:31:16;3.70;99.90
4050;DHT22;2039;50.894;6.888;2023-02-15T09:33:43;3.80;99.90
4050;DHT22;2039;50.894;6.888;2023-02-15T09:36:29;3.90;99.90
4050;DHT22;2039;50.894;6.888;2023-02-15T09:39:10;4.00;99.90
4050;DHT22;2039;50.894;6.888;2023-02-15T09:44:27;4.30;99.90
4050;DHT22;2039;50.894;6.888;2023-02-15T09:47:20;4.40;99.90
4050;DHT22;2039;50.894;6.888;2023-02-15T09:53:19;4.50;99.90
4050;DHT22;2039;50.894;6.888;2023-02-15T09:56:10;4.60;99.90
4050;DHT22;2039;50.894;6.888;2023-02-15T09:58:46;4.70;99.90
4050;DHT22;2039;50.894;6.888;2023-02-15T10:01:27;4.80;99.90
4050;DHT22;2039;50.894;6.888;2023-02-15T10:21:19;5.60;99.90
4050;DHT22;2039;50.894;6.888;2023-02-15T10:24:00;5.80;99.90
4050;DHT22;2039;50.894;6.888;2023-02-15T10:26:46;5.90;99.90
4050;DHT22;2039;50.894;6.888;2023-02-15T10:29:38;5.90;99.90
4050;DHT22;2039;50.894;6.888;2023-02-15T10:32:34;6.00;99.90
4050;DHT22;2039;50.894;6.888;2023-02-15T10:38:16;6.30;99.90
4050;DHT22;2039;50.894;6.888;2023-02-15T10:53:12;6.60;99.90
4050;DHT22;2039;50.894;6.888;2023-02-15T11:01:42;6.80;90.40
4050;DHT22;2039;50.894;6.888;2023-02-15T11:06:43;7.10;66.00
4050;DHT22;2039;50.894;6.888;2023-02-15T11:09:14;7.20;60.50
4050;DHT22;2039;50.894;6.888;2023-02-15T11:11:45;7.30;59.00
4050;DHT22;2039;50.894;6.888;2023-02-15T11:17:04;7.50;56.70
4050;DHT22;2039;50.894;6.888;2023-02-15T11:19:37;7.50;47.90
4050;DHT22;2039;50.894;6.888;2023-02-15T11:22:06;7.60;50.60
4050;DHT22;2039;50.894;6.888;2023-02-15T11:24:40;7.80;52.50
4050;DHT22;2039;50.894;6.888;2023-02-15T11:32:21;8.20;33.30
4050;DHT22;2039;50.894;6.888;2023-02-15T11:34:53;8.20;31.40
4050;DHT22;2039;50.894;6.888;2023-02-15T11:37:44;8.30;30.40
4050;DHT22;2039;50.894;6.888;2023-02-15T11:40:22;8.40;29.10
4050;DHT22;2039;50.894;6.888;2023-02-15T11:42:53;8.60;24.60
4050;DHT22;2039;50.894;6.888;2023-02-15T11:45:33;8.80;24.90
4050;DHT22;2039;50.894;6.888;2023-02-15T11:48:07;8.80;20.50
4050;DHT22;2039;50.894;6.888;2023-02-15T11:50:34;8.90;16.60
4050;DHT22;2039;50.894;6.888;2023-02-15T11:53:13;9.00;19.80
4050;DHT22;2039;50.894;6.888;2023-02-15T11:55:43;9.10;17.20
4050;DHT22;2039;50.894;6.888;2023-02-15T11:58:36;9.20;14.50
4050;DHT22;2039;50.894;6.888;2023-02-15T12:04:28;9.30;7.90
4050;DHT22;2039;50.894;6.888;2023-02-15T12:09:48;9.50;10.00
4050;DHT22;2039;50.894;6.888;2023-02-15T12:12:32;9.50;9.60
4050;DHT22;2039;50.894;6.888;2023-02-15T12:15:02;9.60;9.00
4050;DHT22;2039;50.894;6.888;2023-02-15T12:17:31;9.70;4.70
4050;DHT22;2039;50.894;6.888;2023-02-15T12:20:02;9.70;1.60
4050;DHT22;2039;50.894;6.888;2023-02-15T12:22:31;9.60;4.50
4050;DHT22;2039;50.894;6.888;2023-02-15T12:28:34;9.80;8.90
4050;DHT22;2039;50.894;6.888;2023-02-15T12:31:03;9.80;2.30
4050;DHT22;2039;50.894;6.888;2023-02-15T12:33:35;9.80;2.50
4050;DHT22;2039;50.894;6.888;2023-02-15T12:36:19;9.80;4.40
4050;DHT22;2039;50.894;6.888;2023-02-15T12:41:48;10.00;1.50
4050;DHT22;2039;50.894;6.888;2023-02-15T12:44:27;10.00;3.10
4050;DHT22;2039;50.894;6.888;2023-02-15T12:46:59;10.00;4.10
4050;DHT22;2039;50.894;6.888;2023-02-15T12:49:27;10.10;5.90
4050;DHT22;2039;50.894;6.888;2023-02-15T12:51:56;10.10;4.90
4050;DHT22;2039;50.894;6.888;2023-02-15T12:54:30;10.20;1.90
4050;DHT22;2039;50.894;6.888;2023-02-15T12:57:24;10.30;1.00
4050;DHT22;2039;50.894;6.888;2023-02-15T12:59:51;10.20;2.00
4050;DHT22;2039;50.894;6.888;2023-02-15T13:02:25;10.30;1.00
4050;DHT22;2039;50.894;6.888;2023-02-15T13:04:53;10.30;4.20
4050;DHT22;2039;50.894;6.888;2023-02-15T13:07:19;10.30;1.00
4050;DHT22;2039;50.894;6.888;2023-02-15T13:09:48;10.30;1.00
4050;DHT22;2039;50.894;6.888;2023-02-15T13:12:21;10.40;1.00
4050;DHT22;2039;50.894;6.888;2023-02-15T13:14:51;10.30;1.00
4050;DHT22;2039;50.894;6.888;2023-02-15T13:17:40;10.40;1.00
4050;DHT22;2039;50.894;6.888;2023-02-15T13:20:20;10.40;1.00
4050;DHT22;2039;50.894;6.888;2023-02-15T13:22:49;10.50;1.00
4050;DHT22;2039;50.894;6.888;2023-02-15T13:25:27;10.50;1.00
4050;DHT22;2039;50.894;6.888;2023-02-15T13:28:01;10.60;1.00
4050;DHT22;2039;50.894;6.888;2023-02-15T13:30:36;10.60;1.00
4050;DHT22;2039;50.894;6.888;2023-02-15T13:35:54;10.60;1.00
4050;DHT22;2039;50.894;6.888;2023-02-15T13:38:27;10.70;1.00
4050;DHT22;2039;50.894;6.888;2023-02-15T13:41:06;10.70;1.00
4050;DHT22;2039;50.894;6.888;2023-02-15T13:44:03;10.70;1.00
4050;DHT22;2039;50.894;6.888;2023-02-15T13:52:23;10.70;1.00
4050;DHT22;2039;50.894;6.888;2023-02-15T14:06:14;10.90;1.00
4050;DHT22;2039;50.894;6.888;2023-02-15T14:20:15;11.00;1.00
4050;DHT22;2039;50.894;6.888;2023-02-15T14:22:46;10.90;1.00
4050;DHT22;2039;50.894;6.888;2023-02-15T14:25:34;10.90;1.00
4050;DHT22;2039;50.894;6.888;2023-02-15T14:28:35;10.90;1.00
4050;DHT22;2039;50.894;6.888;2023-02-15T14:31:04;10.90;1.00
4050;DHT22;2039;50.894;6.888;2023-02-15T14:33:40;10.90;1.00
4050;DHT22;2039;50.894;6.888;2023-02-15T14:36:13;10.90;1.00
4050;DHT22;2039;50.894;6.888;2023-02-15T14:39:15;10.90;1.00
4050;DHT22;2039;50.894;6.888;2023-02-15T14:42:24;10.90;1.00
4050;DHT22;2039;50.894;6.888;2023-02-15T14:45:01;10.80;1.00
4050;DHT22;2039;50.894;6.888;2023-02-15T14:47:40;10.80;1.00
4050;DHT22;2039;50.894;6.888;2023-02-15T14:53:21;10.80;1.00
4050;DHT22;2039;50.894;6.888;2023-02-15T14:58:55;10.80;1.00
4050;DHT22;2039;50.894;6.888;2023-02-15T15:01:32;10.80;1.00
4050;DHT22;2039;50.894;6.888;2023-02-15T15:04:06;10.70;1.00
4050;DHT22;2039;50.894;6.888;2023-02-15T15:06:58;10.70;1.00
4050;DHT22;2039;50.894;6.888;2023-02-15T15:09:27;10.80;1.00
4050;DHT22;2039;50.894;6.888;2023-02-15T15:14:43;10.70;1.00
4050;DHT22;2039;50.894;6.888;2023-02-15T15:20:01;10.70;1.00
4050;DHT22;2039;50.894;6.888;2023-02-15T15:22:30;10.70;1.00
4050;DHT22;2039;50.894;6.888;2023-02-15T15:32:56;10.60;1.00
4050;DHT22;2039;50.894;6.888;2023-02-15T15:38:26;10.60;1.00
4050;DHT22;2039;50.894;6.888;2023-02-15T15:49:14;10.40;6.30
4050;DHT22;2039;50.894;6.888;2023-02-15T15:51:42;10.40;6.00
4050;DHT22;2039;50.894;6.888;2023-02-15T15:54:15;10.30;7.70
4050;DHT22;2039;50.894;6.888;2023-02-15T15:56:49;10.30;8.90
4050;DHT22;2039;50.894;6.888;2023-02-15T15:59:25;10.20;10.50
4050;DHT22;2039;50.894;6.888;2023-02-15T16:01:51;10.20;12.20
4050;DHT22;2039;50.894;6.888;2023-02-15T16:04:29;10.10;12.80
4050;DHT22;2039;50.894;6.888;2023-02-15T16:10:19;10.10;13.70
4050;DHT22;2039;50.894;6.888;2023-02-15T16:12:47;10.00;14.80
4050;DHT22;2039;50.894;6.888;2023-02-15T16:15:20;9.90;17.00
4050;DHT22;2039;50.894;6.888;2023-02-15T16:17:53;9.80;18.40
4050;DHT22;2039;50.894;6.888;2023-02-15T16:20:45;9.70;21.10
4050;DHT22;2039;50.894;6.888;2023-02-15T16:23:30;9.70;23.00
4050;DHT22;2039;50.894;6.888;2023-02-15T16:28:53;9.60;28.40
4050;DHT22;2039;50.894;6.888;2023-02-15T16:31:20;9.50;29.90
4050;DHT22;2039;50.894;6.888;2023-02-15T16:33:48;9.50;30.00
4050;DHT22;2039;50.894;6.888;2023-02-15T16:36:27;9.40;33.50
4050;DHT22;2039;50.894;6.888;2023-02-15T16:43:48;9.10;45.50
4050;DHT22;2039;50.894;6.888;2023-02-15T16:46:36;9.00;48.80
4050;DHT22;2039;50.894;6.888;2023-02-15T16:49:20;9.00;49.70
4050;DHT22;2039;50.894;6.888;2023-02-15T16:52:04;9.00;52.10
4050;DHT22;2039;50.894;6.888;2023-02-15T16:54:34;8.90;54.00
4050;DHT22;2039;50.894;6.888;2023-02-15T16:57:01;8.80;56.70
4050;DHT22;2039;50.894;6.888;2023-02-15T16:59:40;8.80;56.50
4050;DHT22;2039;50.894;6.888;2023-02-15T17:02:31;8.80;58.30
4050;DHT22;2039;50.894;6.888;2023-02-15T17:08:23;8.60;63.80
4050;DHT22;2039;50.894;6.888;2023-02-15T17:10:33;8.60;61.00
4050;DHT22;2039;50.894;6.888;2023-02-15T17:13:14;8.70;59.00
4050;DHT22;2039;50.894;6.888;2023-02-15T17:18:19;8.50;67.70
4050;DHT22;2039;50.894;6.888;2023-02-15T17:20:48;8.50;66.00
4050;DHT22;2039;50.894;6.888;2023-02-15T17:26:11;8.40;72.40
4050;DHT22;2039;50.894;6.888;2023-02-15T17:28:45;8.40;70.10
4050;DHT22;2039;50.894;6.888;2023-02-15T17:31:14;8.30;72.40
4050;DHT22;2039;50.894;6.888;2023-02-15T17:33:41;8.30;73.30
4050;DHT22;2039;50.894;6.888;2023-02-15T17:36:23;8.30;72.10
4050;DHT22;2039;50.894;6.888;2023-02-15T17:39:19;8.20;72.90
4050;DHT22;2039;50.894;6.888;2023-02-15T17:41:48;8.20;73.10
4050;DHT22;2039;50.894;6.888;2023-02-15T17:44:18;8.20;75.10
4050;DHT22;2039;50.894;6.888;2023-02-15T17:46:43;8.10;76.90
4050;DHT22;2039;50.894;6.888;2023-02-15T17:49:22;8.00;83.90
4050;DHT22;2039;50.894;6.888;2023-02-15T17:51:48;7.90;90.20
4050;DHT22;2039;50.894;6.888;2023-02-15T17:54:14;7.90;91.50
4050;DHT22;2039;50.894;6.888;2023-02-15T17:57:13;7.70;93.50
4050;DHT22;2039;50.894;6.888;2023-02-15T17:59:40;7.70;94.10
4050;DHT22;2039;50.894;6.888;2023-02-15T18:02:33;7.70;94.20
4050;DHT22;2039;50.894;6.888;2023-02-15T18:05:20;7.60;95.80
4050;DHT22;2039;50.894;6.888;2023-02-15T18:08:17;7.60;97.40
4050;DHT22;2039;50.894;6.888;2023-02-15T18:11:01;7.50;98.10
4050;DHT22;2039;50.894;6.888;2023-02-15T18:13:45;7.40;99.90
4050;DHT22;2039;50.894;6.888;2023-02-15T18:16:18;7.40;99.90
4050;DHT22;2039;50.894;6.888;2023-02-15T18:18:44;7.40;99.90
4050;DHT22;2039;50.894;6.888;2023-02-15T18:21:11;7.40;99.90
4050;DHT22;2039;50.894;6.888;2023-02-15T18:23:38;7.40;99.90
4050;DHT22;2039;50.894;6.888;2023-02-15T18:26:04;7.40;99.90
4050;DHT22;2039;50.894;6.888;2023-02-15T18:28:33;7.30;99.90
4050;DHT22;2039;50.894;6.888;2023-02-15T18:31:04;7.30;99.90
4050;DHT22;2039;50.894;6.888;2023-02-15T18:33:57;7.30;99.90
4050;DHT22;2039;50.894;6.888;2023-02-15T18:36:42;7.30;99.90
4050;DHT22;2039;50.894;6.888;2023-02-15T18:41:52;7.20;99.90
4050;DHT22;2039;50.894;6.888;2023-02-15T18:44:18;7.20;99.90
4050;DHT22;2039;50.894;6.888;2023-02-15T18:46:47;7.20;99.90
4050;DHT22;2039;50.894;6.888;2023-02-15T18:49:15;7.20;99.90
4050;DHT22;2039;50.894;6.888;2023-02-15T18:51:46;7.10;99.90
4050;DHT22;2039;50.894;6.888;2023-02-15T18:54:18;7.10;99.90
4050;DHT22;2039;50.894;6.888;2023-02-15T18:56:52;7.10;99.90
4050;DHT22;2039;50.894;6.888;2023-02-15T18:59:23;7.10;99.90
4050;DHT22;2039;50.894;6.888;2023-02-15T19:02:01;7.10;99.90
4050;DHT22;2039;50.894;6.888;2023-02-15T19:05:01;7.10;99.90
4050;DHT22;2039;50.894;6.888;2023-02-15T19:07:27;7.10;99.90
4050;DHT22;2039;50.894;6.888;2023-02-15T19:12:40;7.10;99.90
4050;DHT22;2039;50.894;6.888;2023-02-15T19:15:38;7.10;99.90
4050;DHT22;2039;50.894;6.888;2023-02-15T19:18:27;7.00;99.90
4050;DHT22;2039;50.894;6.888;2023-02-15T19:21:01;6.90;99.90
4050;DHT22;2039;50.894;6.888;2023-02-15T19:23:29;6.90;99.90
4050;DHT22;2039;50.894;6.888;2023-02-15T19:25:59;6.90;99.90
4050;DHT22;2039;50.894;6.888;2023-02-15T19:28:36;6.80;99.90
4050;DHT22;2039;50.894;6.888;2023-02-15T19:31:13;6.80;99.90
4050;DHT22;2039;50.894;6.888;2023-02-15T19:34:09;6.80;99.90
4050;DHT22;2039;50.894;6.888;2023-02-15T19:37:06;6.70;99.90
4050;DHT22;2039;50.894;6.888;2023-02-15T19:39:38;6.60;99.90
4050;DHT22;2039;50.894;6.888;2023-02-15T19:42:23;6.70;99.90
4050;DHT22;2039;50.894;6.888;2023-02-15T19:44:50;6.60;99.90
4050;DHT22;2039;50.894;6.888;2023-02-15T19:47:18;6.60;99.90
4050;DHT22;2039;50.894;6.888;2023-02-15T19:49:50;6.50;99.90
4050;DHT22;2039;50.894;6.888;2023-02-15T19:52:26;6.40;99.90
4050;DHT22;2039;50.894;6.888;2023-02-15T19:54:54;6.30;99.90
4050;DHT22;2039;50.894;6.888;2023-02-15T19:57:31;6.40;99.90
4050;DHT22;2039;50.894;6.888;2023-02-15T20:00:13;6.40;99.90